createdAt,value
2022-09-19T00:01:53.636Z,97384.19
2022-09-19T00:04:25.237Z,97391.44
2022-09-19T00:06:54.905Z,97384.19
2022-09-19T00:09:25.938Z,97384.19
2022-09-19T00:11:55.023Z,97392.25
2022-09-19T00:14:25.278Z,97385.25
2022-09-19T00:16:57.730Z,97374.50
2022-09-19T00:19:27.638Z,97372.00
2022-09-19T00:21:57.141Z,97382.72
2022-09-19T00:24:43.186Z,97380.88
2022-09-19T00:27:12.385Z,97380.88
2022-09-19T00:29:42.376Z,97379.22
2022-09-19T00:32:13.647Z,97376.53
2022-09-19T00:34:45.000Z,97376.72
2022-09-19T00:37:15.732Z,97383.78
2022-09-19T00:39:44.112Z,97386.63
2022-09-19T00:42:16.769Z,97382.94
2022-09-19T00:45:02.958Z,97386.63
2022-09-19T00:47:36.599Z,97377.97
2022-09-19T00:50:13.324Z,97386.84
2022-09-19T00:52:46.309Z,97381.66
2022-09-19T00:55:14.998Z,97384.34
2022-09-19T00:57:53.520Z,97390.53
2022-09-19T01:00:22.104Z,97394.06
2022-09-19T01:02:52.772Z,97395.06
2022-09-19T01:05:29.331Z,97385.38
2022-09-19T01:08:16.721Z,97388.88
2022-09-19T01:10:58.870Z,97388.06
2022-09-19T01:13:32.236Z,97388.25
2022-09-19T01:16:04.782Z,97388.25
2022-09-19T01:18:36.990Z,97398.16
2022-09-19T01:21:42.226Z,97387.41
2022-09-19T01:24:50.642Z,97386.59
2022-09-19T01:28:07.886Z,97395.47
2022-09-19T01:30:36.866Z,97385.75
2022-09-19T01:33:08.236Z,97388.44
2022-09-19T01:35:39.539Z,97391.13
2022-09-19T01:38:11.126Z,97386.78
2022-09-19T01:40:39.654Z,97386.78
2022-09-19T01:43:13.839Z,97389.44
2022-09-19T01:45:42.700Z,97389.44
2022-09-19T01:48:17.306Z,97384.09
2022-09-19T01:51:05.950Z,97397.50
2022-09-19T01:53:46.898Z,97390.50
2022-09-19T01:56:22.288Z,97393.16
2022-09-19T01:58:55.951Z,97395.84
2022-09-19T02:01:29.360Z,97398.53
2022-09-19T02:04:02.334Z,97397.72
2022-09-19T02:06:43.644Z,97398.72
2022-09-19T02:09:18.390Z,97392.53
2022-09-19T02:11:46.777Z,97400.56
2022-09-19T02:14:19.279Z,97399.75
2022-09-19T02:16:52.248Z,97405.09
2022-09-19T02:19:23.148Z,97398.91
2022-09-19T02:21:55.213Z,97401.78
2022-09-19T02:24:28.493Z,97396.41
2022-09-19T02:26:58.580Z,97400.97
2022-09-19T02:29:31.374Z,97403.63
2022-09-19T02:32:00.620Z,97410.03
2022-09-19T02:34:29.127Z,97403.81
2022-09-19T02:37:02.298Z,97410.03
2022-09-19T02:39:33.108Z,97411.03
2022-09-19T02:42:04.819Z,97411.03
2022-09-19T02:44:37.886Z,97405.69
2022-09-19T02:47:11.461Z,97396.81
2022-09-19T02:49:41.791Z,97400.53
2022-09-19T02:52:14.787Z,97405.88
2022-09-19T02:54:44.004Z,97407.72
2022-09-19T02:57:14.907Z,97406.88
2022-09-19T02:59:46.155Z,97412.25
2022-09-19T03:02:18.377Z,97400.69
2022-09-19T03:04:49.311Z,97406.06
2022-09-19T03:07:20.421Z,97409.78
2022-09-19T03:09:54.717Z,97402.56
2022-09-19T03:12:26.649Z,97407.91
2022-09-19T03:14:59.807Z,97407.91
2022-09-19T03:17:32.411Z,97411.59
2022-09-19T03:20:00.831Z,97411.59
2022-09-19T03:22:30.357Z,97409.13
2022-09-19T03:25:02.817Z,97410.78
2022-09-19T03:27:31.394Z,97402.94
2022-09-19T03:30:01.117Z,97411.00
2022-09-19T03:32:29.988Z,97411.81
2022-09-19T03:34:58.379Z,97406.63
2022-09-19T03:37:26.899Z,97412.84
2022-09-19T03:39:55.364Z,97421.88
2022-09-19T03:42:23.799Z,97416.53
2022-09-19T03:44:52.388Z,97422.72
2022-09-19T03:47:22.307Z,97411.16
2022-09-19T03:49:51.919Z,97408.47
2022-09-19T03:52:20.477Z,97421.88
2022-09-19T03:54:49.284Z,97426.59
2022-09-19T03:57:17.803Z,97425.78
2022-09-19T03:59:46.755Z,97430.13
2022-09-19T04:02:15.184Z,97430.13
2022-09-19T04:04:45.082Z,97434.66
2022-09-19T04:07:13.633Z,97434.66
2022-09-19T04:09:42.037Z,97434.66
2022-09-19T04:12:10.603Z,97434.66
2022-09-19T04:14:39.396Z,97431.97
2022-09-19T04:17:24.675Z,97440.00
2022-09-19T04:19:54.501Z,97438.38
2022-09-19T04:22:23.189Z,97450.75
2022-09-19T04:24:53.193Z,97445.38
2022-09-19T04:27:21.821Z,97451.78
2022-09-19T04:29:50.382Z,97454.44
2022-09-19T04:32:18.872Z,97452.81
2022-09-19T04:34:48.410Z,97450.13
2022-09-19T04:37:18.403Z,97450.94
2022-09-19T04:39:49.841Z,97456.31
2022-09-19T04:42:18.277Z,97462.66
2022-09-19T04:44:46.718Z,97461.84
2022-09-19T04:47:15.612Z,97458.34
2022-09-19T04:49:44.069Z,97461.03
2022-09-19T04:52:13.752Z,97471.91
2022-09-19T04:54:43.993Z,97474.59
2022-09-19T04:57:12.485Z,97479.13
2022-09-19T04:59:40.959Z,97485.31
2022-09-19T05:02:09.835Z,97480.81
2022-09-19T05:04:39.593Z,97487.00
2022-09-19T05:07:09.871Z,97485.16
2022-09-19T05:09:38.352Z,97483.28
2022-09-19T05:12:10.603Z,97482.75
2022-09-19T05:14:39.014Z,97487.53
2022-09-19T05:17:07.504Z,97491.88
2022-09-19T05:19:37.316Z,97492.91
2022-09-19T05:22:06.005Z,97496.19
2022-09-19T05:24:36.105Z,97499.75
2022-09-19T05:27:05.017Z,97506.09
2022-09-19T05:29:37.402Z,97507.31
2022-09-19T05:32:06.486Z,97511.84
2022-09-19T05:34:35.158Z,97521.53
2022-09-19T05:37:03.565Z,97518.69
2022-09-19T05:39:32.011Z,97522.84
2022-09-19T05:42:01.862Z,97520.16
2022-09-19T05:44:30.408Z,97526.34
2022-09-19T05:47:00.302Z,97529.69
2022-09-19T05:49:28.821Z,97526.63
2022-09-19T05:51:57.693Z,97535.03
2022-09-19T05:54:25.193Z,97531.72
2022-09-19T05:56:54.926Z,97535.44
2022-09-19T05:59:23.443Z,97537.47
2022-09-19T06:01:52.361Z,97544.84
2022-09-19T06:04:22.574Z,97551.03
2022-09-19T06:06:50.955Z,97552.72
2022-09-19T06:09:19.447Z,97548.56
2022-09-19T06:11:47.863Z,97552.28
2022-09-19T06:14:16.415Z,97550.59
2022-09-19T06:16:44.982Z,97554.97
2022-09-19T06:19:13.581Z,97564.00
2022-09-19T06:21:46.353Z,97562.34
2022-09-19T06:24:14.835Z,97565.03
2022-09-19T06:26:43.314Z,97566.69
2022-09-19T06:29:11.943Z,97571.41
2022-09-19T06:31:41.563Z,97572.25
2022-09-19T06:34:10.051Z,97568.72
2022-09-19T06:36:38.946Z,97575.75
2022-09-19T06:39:08.690Z,97573.72
2022-09-19T06:41:37.424Z,97573.91
2022-09-19T06:44:06.694Z,97578.44
2022-09-19T06:46:38.413Z,97581.13
2022-09-19T06:49:08.394Z,97579.25
2022-09-19T06:51:36.862Z,97574.72
2022-09-19T06:54:05.709Z,97576.59
2022-09-19T06:56:35.633Z,97577.41
2022-09-19T06:59:05.076Z,97573.06
2022-09-19T07:01:34.423Z,97582.78
2022-09-19T07:04:03.308Z,97587.13
2022-09-19T07:06:35.768Z,97591.63
2022-09-19T07:09:04.388Z,97595.19
2022-09-19T07:11:33.169Z,97601.38
2022-09-19T07:14:03.719Z,97599.69
2022-09-19T07:16:32.233Z,97599.69
2022-09-19T07:19:02.379Z,97598.84
2022-09-19T07:21:30.902Z,97594.16
2022-09-19T07:24:02.623Z,97603.22
2022-09-19T07:26:31.302Z,97595.19
2022-09-19T07:28:59.684Z,97610.25
2022-09-19T07:31:30.269Z,97609.41
2022-09-19T07:34:01.986Z,97605.91
2022-09-19T07:36:35.709Z,97607.56
2022-09-19T07:39:04.388Z,97618.94
2022-09-19T07:41:32.950Z,97615.88
2022-09-19T07:44:01.411Z,97620.03
2022-09-19T07:46:31.246Z,97623.53
2022-09-19T07:48:59.709Z,97631.22
2022-09-19T07:51:30.222Z,97628.34
2022-09-19T07:53:58.945Z,97631.03
2022-09-19T07:56:27.405Z,97632.69
2022-09-19T07:58:55.974Z,97639.72
2022-09-19T08:01:24.480Z,97632.53
2022-09-19T08:03:54.932Z,97633.34
2022-09-19T08:06:23.356Z,97632.13
2022-09-19T08:08:51.797Z,97636.69
2022-09-19T08:11:21.152Z,97631.94
2022-09-19T08:13:49.584Z,97638.16
2022-09-19T08:16:18.477Z,97638.78
2022-09-19T08:18:47.277Z,97647.47
2022-09-19T08:21:17.055Z,97644.78
2022-09-19T08:23:45.581Z,97649.13
2022-09-19T08:26:14.127Z,97649.97
2022-09-19T08:28:42.813Z,97651.63
2022-09-19T08:31:11.403Z,97651.63
2022-09-19T08:33:40.151Z,97660.34
2022-09-19T08:36:10.354Z,97650.44
2022-09-19T08:38:40.251Z,97658.47
2022-09-19T08:41:25.999Z,97663.66
2022-09-19T08:43:57.632Z,97659.31
2022-09-19T08:46:29.893Z,97664.50
2022-09-19T08:49:00.098Z,97659.13
2022-09-19T08:51:32.479Z,97670.69
2022-09-19T08:54:11.759Z,97664.50
2022-09-19T08:56:40.406Z,97666.16
2022-09-19T08:59:12.779Z,97673.16
2022-09-19T09:01:41.273Z,97665.13
2022-09-19T09:04:23.534Z,97669.66
2022-09-19T09:07:14.994Z,97676.72
2022-09-19T09:09:59.928Z,97664.13
2022-09-19T09:12:33.836Z,97659.59
2022-09-19T09:15:19.839Z,97669.28
2022-09-19T09:18:01.609Z,97663.09
2022-09-19T09:20:40.391Z,97664.78
2022-09-19T09:23:12.763Z,97672.81
2022-09-19T09:25:51.869Z,97671.78
2022-09-19T09:28:28.323Z,97670.78
2022-09-19T09:31:03.571Z,97672.47
2022-09-19T09:33:34.812Z,97670.44
2022-09-19T09:36:07.526Z,97670.63
2022-09-19T09:38:38.274Z,97675.81
2022-09-19T09:41:30.392Z,97670.44
2022-09-19T09:44:06.991Z,97677.03
2022-09-19T09:46:50.515Z,97665.06
2022-09-19T09:49:20.001Z,97665.91
2022-09-19T09:51:54.949Z,97671.06
2022-09-19T09:54:52.861Z,97673.75
2022-09-19T09:57:32.306Z,97669.22
2022-09-19T10:00:20.063Z,97675.44
2022-09-19T10:03:10.447Z,97673.75
2022-09-19T10:05:41.461Z,97680.81
2022-09-19T10:08:19.861Z,97677.09
2022-09-19T10:10:48.939Z,97678.13
2022-09-19T10:13:26.688Z,97685.31
2022-09-19T10:15:57.565Z,97687.00
2022-09-19T10:18:29.059Z,97695.88
2022-09-19T10:20:58.128Z,97694.00
2022-09-19T10:23:34.260Z,97696.69
2022-09-19T10:26:04.395Z,97698.00
2022-09-19T10:28:38.562Z,97704.56
2022-09-19T10:31:24.647Z,97697.53
2022-09-19T10:33:53.809Z,97703.09
2022-09-19T10:36:26.466Z,97705.56
2022-09-19T10:38:59.820Z,97719.84
2022-09-19T10:41:29.832Z,97712.16
2022-09-19T10:44:00.444Z,97714.66
2022-09-19T10:46:36.787Z,97717.16
2022-09-19T10:49:08.614Z,97713.44
2022-09-19T10:51:39.700Z,97718.00
2022-09-19T10:54:13.069Z,97721.50
2022-09-19T10:56:42.331Z,97718.66
2022-09-19T10:59:27.290Z,97711.41
2022-09-19T11:02:21.475Z,97710.59
2022-09-19T11:05:02.176Z,97712.25
2022-09-19T11:07:32.314Z,97723.81
2022-09-19T11:10:11.166Z,97728.19
2022-09-19T11:12:42.287Z,97730.00
2022-09-19T11:15:17.673Z,97722.81
2022-09-19T11:17:59.052Z,97725.50
2022-09-19T11:20:41.262Z,97722.59
2022-09-19T11:23:41.260Z,97732.50
2022-09-19T11:26:21.928Z,97729.81
2022-09-19T11:29:00.332Z,97730.66
2022-09-19T11:34:50.915Z,97733.34
2022-09-19T11:37:33.776Z,97735.00
2022-09-19T11:40:16.810Z,97737.66
2022-09-19T11:42:50.396Z,97745.72
2022-09-19T11:45:20.815Z,97741.22
2022-09-19T11:48:15.124Z,97732.31
2022-09-19T11:50:58.117Z,97729.63
2022-09-19T11:53:36.868Z,97726.75
2022-09-19T11:56:16.093Z,97721.41
2022-09-19T11:58:53.128Z,97718.88
2022-09-19T12:01:36.820Z,97727.59
2022-09-19T12:04:21.567Z,97719.75
2022-09-19T12:07:18.081Z,97736.47
2022-09-19T12:09:50.757Z,97731.97
2022-09-19T12:12:21.743Z,97725.72
2022-09-19T12:14:52.953Z,97722.88
2022-09-19T12:17:27.282Z,97718.34
2022-09-19T12:20:02.775Z,97722.88
2022-09-19T12:22:32.554Z,97724.53
2022-09-19T12:25:07.115Z,97716.47
2022-09-19T12:27:38.488Z,97722.69
2022-09-19T12:30:09.827Z,97714.66
2022-09-19T12:32:44.902Z,97711.09
2022-09-19T12:35:22.675Z,97726.22
2022-09-19T12:38:04.582Z,97725.38
2022-09-19T12:40:42.309Z,97711.09
2022-09-19T12:43:17.578Z,97728.91
2022-09-19T12:45:48.447Z,97735.25
2022-09-19T12:48:24.563Z,97744.19
2022-09-19T12:50:55.060Z,97740.47
2022-09-19T12:53:36.059Z,97748.50
2022-09-19T12:56:08.024Z,97741.66
2022-09-19T12:58:49.351Z,97740.47
2022-09-19T13:01:22.339Z,97735.91
2022-09-19T13:03:55.441Z,97742.09
2022-09-19T13:06:26.896Z,97746.47
2022-09-19T13:08:59.276Z,97743.97
2022-09-19T13:11:31.007Z,97746.28
2022-09-19T13:14:02.117Z,97741.94
2022-09-19T13:16:32.713Z,97748.78
2022-09-19T13:19:18.830Z,97744.41
2022-09-19T13:22:07.567Z,97741.72
2022-09-19T13:24:56.093Z,97745.28
2022-09-19T13:27:26.618Z,97742.59
2022-09-19T13:29:58.569Z,97743.41
2022-09-19T13:32:53.642Z,97743.41
2022-09-19T13:35:23.801Z,97754.97
2022-09-19T13:38:01.592Z,97749.59
2022-09-19T13:40:43.225Z,97756.63
2022-09-19T13:43:31.684Z,97758.50
2022-09-19T13:46:09.884Z,97756.63
2022-09-19T13:48:46.307Z,97764.69
2022-09-19T13:51:33.248Z,97766.53
2022-09-19T13:54:45.315Z,97776.47
2022-09-19T13:57:18.367Z,97773.13
2022-09-19T13:59:52.680Z,97781.00
2022-09-19T14:02:25.335Z,97780.78
2022-09-19T14:05:02.349Z,97788.03
2022-09-19T14:10:28.741Z,97798.75
2022-09-19T14:13:02.487Z,97785.16
2022-09-19T14:16:07.639Z,97783.47
2022-09-19T14:19:03.061Z,97793.00
2022-09-19T14:21:58.380Z,97786.66
2022-09-19T14:24:49.962Z,97784.78
2022-09-19T14:28:03.266Z,97783.13
2022-09-19T14:31:07.882Z,97780.44
2022-09-19T14:34:21.199Z,97767.03
2022-09-19T14:37:24.581Z,97773.22
2022-09-19T14:40:25.814Z,97777.75
2022-09-19T14:43:11.380Z,97775.06
2022-09-19T14:45:52.809Z,97772.19
2022-09-19T14:48:35.893Z,97781.94
2022-09-19T14:51:28.026Z,97782.09
2022-09-19T14:54:00.029Z,97785.59
2022-09-19T14:56:28.459Z,97781.94
2022-09-19T14:59:01.912Z,97782.94
2022-09-19T15:01:33.441Z,97783.56
2022-09-19T15:04:04.056Z,97775.31
2022-09-19T15:06:34.778Z,97784.41
2022-09-19T15:09:03.789Z,97792.66
2022-09-19T15:11:33.351Z,97794.31
2022-09-19T15:14:06.892Z,97793.28
2022-09-19T15:16:35.405Z,97797.66
2022-09-19T15:19:04.057Z,97798.47
2022-09-19T15:21:35.365Z,97793.13
2022-09-19T15:24:07.102Z,97803.19
2022-09-19T15:26:43.018Z,97807.19
2022-09-19T15:29:38.100Z,97805.06
2022-09-19T15:32:23.572Z,97807.19
2022-09-19T15:34:54.149Z,97809.22
2022-09-19T15:37:22.790Z,97809.59
2022-09-19T15:39:51.821Z,97812.56
2022-09-19T15:42:20.195Z,97815.88
2022-09-19T15:44:49.955Z,97814.22
2022-09-19T15:47:20.026Z,97821.25
2022-09-19T15:49:50.662Z,97806.81
2022-09-19T15:52:31.106Z,97817.34
2022-09-19T15:55:00.032Z,97819.22
2022-09-19T15:57:33.120Z,97829.78
2022-09-19T16:00:07.635Z,97831.63
2022-09-19T16:02:40.091Z,97833.47
2022-09-19T16:05:17.602Z,97832.47
2022-09-19T16:08:08.660Z,97831.63
2022-09-19T16:10:53.582Z,97843.66
2022-09-19T16:13:37.244Z,97837.00
2022-09-19T16:16:27.716Z,97841.72
2022-09-19T16:18:56.771Z,97846.25
2022-09-19T16:21:29.424Z,97842.63
2022-09-19T16:23:57.887Z,97849.84
2022-09-19T16:26:31.181Z,97851.53
2022-09-19T16:28:59.655Z,97855.22
2022-09-19T16:31:33.801Z,97856.06
2022-09-19T16:34:07.609Z,97859.59
2022-09-19T16:36:43.024Z,97861.41
2022-09-19T16:39:28.754Z,97857.25
2022-09-19T16:42:07.911Z,97870.50
2022-09-19T16:44:42.347Z,97875.72
2022-09-19T16:47:20.297Z,97872.16
2022-09-19T16:52:27.964Z,97876.53
2022-09-19T16:54:57.453Z,97878.19
2022-09-19T16:57:26.281Z,97887.94
2022-09-19T16:59:55.940Z,97885.25
2022-09-19T17:02:27.143Z,97889.41
2022-09-19T17:04:56.096Z,97888.56
2022-09-19T17:07:25.255Z,97891.25
2022-09-19T17:09:54.026Z,97889.22
2022-09-19T17:12:23.649Z,97895.41
2022-09-19T17:14:52.121Z,97891.91
2022-09-19T17:17:21.499Z,97894.41
2022-09-19T17:19:51.286Z,97899.94
2022-09-19T17:22:20.663Z,97888.19
2022-09-19T17:24:49.097Z,97892.56
2022-09-19T17:27:17.587Z,97895.03
2022-09-19T17:29:46.063Z,97904.13
2022-09-19T17:32:14.602Z,97900.59
2022-09-19T17:34:43.004Z,97905.44
2022-09-19T17:37:12.797Z,97912.63
2022-09-19T17:39:41.292Z,97911.63
2022-09-19T17:42:14.038Z,97920.69
2022-09-19T17:44:44.287Z,97911.44
2022-09-19T17:47:33.822Z,97921.19
2022-09-19T17:50:01.445Z,97917.66
2022-09-19T17:52:31.443Z,97931.91
2022-09-19T17:54:59.917Z,97927.38
2022-09-19T17:57:29.071Z,97929.03
2022-09-19T18:00:00.931Z,97933.41
2022-09-19T18:02:47.915Z,97932.38
2022-09-19T18:05:20.412Z,97928.66
2022-09-19T18:07:55.224Z,97931.16
2022-09-19T18:10:25.726Z,97932.38
2022-09-19T18:12:55.983Z,97933.41
2022-09-19T18:15:26.415Z,97933.56
2022-09-19T18:17:55.754Z,97937.09
2022-09-19T18:20:25.012Z,97934.41
2022-09-19T18:22:54.893Z,97939.78
2022-09-19T18:25:27.465Z,97937.28
2022-09-19T18:27:55.973Z,97937.28
2022-09-19T18:30:25.074Z,97938.78
2022-09-19T18:32:53.954Z,97939.97
2022-09-19T18:35:22.514Z,97943.50
2022-09-19T18:37:51.062Z,97939.78
2022-09-19T18:40:21.000Z,97940.25
2022-09-19T18:42:49.633Z,97940.25
2022-09-19T18:45:18.395Z,97938.41
2022-09-19T18:47:48.020Z,97942.75
2022-09-19T18:50:16.564Z,97954.16
2022-09-19T18:52:45.463Z,97951.47
2022-09-19T18:55:14.010Z,97967.56
2022-09-19T18:57:44.001Z,97957.69
2022-09-19T19:00:13.952Z,97960.38
2022-09-19T19:02:42.510Z,97957.69
2022-09-19T19:05:11.205Z,97958.53
2022-09-19T19:07:40.586Z,97954.84
2022-09-19T19:10:10.073Z,97954.63
2022-09-19T19:12:45.667Z,97947.59
2022-09-19T19:15:18.575Z,97951.94
2022-09-19T19:17:48.211Z,97952.97
2022-09-19T19:20:16.995Z,97956.31
2022-09-19T19:22:48.201Z,97949.25
2022-09-19T19:25:17.092Z,97958.78
2022-09-19T19:27:49.916Z,97953.41
2022-09-19T19:30:20.571Z,97965.19
2022-09-19T19:32:48.965Z,97956.13
2022-09-19T19:35:19.315Z,97959.63
2022-09-19T19:37:48.075Z,97956.13
2022-09-19T19:40:16.656Z,97956.94
2022-09-19T19:42:45.114Z,97960.50
2022-09-19T19:45:13.830Z,97962.31
2022-09-19T19:47:44.378Z,97959.44
2022-09-19T19:50:12.735Z,97963.78
2022-09-19T19:52:41.214Z,97962.97
2022-09-19T19:55:12.781Z,97963.78
2022-09-19T19:57:41.773Z,97964.66
2022-09-19T20:00:12.272Z,97965.47
2022-09-19T20:02:40.685Z,97971.69
2022-09-19T20:05:10.952Z,97966.31
2022-09-19T20:07:39.381Z,97966.47
2022-09-19T20:10:10.204Z,97966.47
2022-09-19T20:12:38.619Z,97968.16
2022-09-19T20:15:08.154Z,97968.16
2022-09-19T20:17:36.556Z,97965.47
2022-09-19T20:20:05.320Z,97970.84
2022-09-19T20:22:35.655Z,97963.63
2022-09-19T20:25:04.898Z,97972.50
2022-09-19T20:27:35.760Z,97967.13
2022-09-19T20:30:05.080Z,97959.06
2022-09-19T20:32:33.603Z,97959.06
2022-09-19T20:35:02.195Z,97953.69
2022-09-19T20:37:31.298Z,97967.13
2022-09-19T20:40:02.238Z,97960.75
2022-09-19T20:42:30.738Z,97954.53
2022-09-19T20:44:59.182Z,97955.38
2022-09-19T20:47:27.778Z,97956.38
2022-09-19T20:49:57.050Z,97952.69
2022-09-19T20:52:25.703Z,97955.19
2022-09-19T20:54:54.845Z,97953.69
2022-09-19T20:57:24.816Z,97958.91
2022-09-19T20:59:53.228Z,97962.41
2022-09-19T21:02:21.682Z,97970.66
2022-09-19T21:04:50.092Z,97970.66
2022-09-19T21:07:20.377Z,97969.81
2022-09-19T21:09:48.766Z,97972.34
2022-09-19T21:12:42.382Z,97976.88
2022-09-19T21:15:09.075Z,97977.88
2022-09-19T21:17:37.441Z,97976.88
2022-09-19T21:20:06.721Z,97982.25
2022-09-19T21:22:35.182Z,97977.72
2022-09-19T21:25:03.903Z,97988.47
2022-09-19T21:27:32.395Z,97986.59
2022-09-19T21:30:00.760Z,97985.78
2022-09-19T21:32:30.517Z,97978.53
2022-09-19T21:34:58.883Z,97983.09
2022-09-19T21:37:27.338Z,97995.50
2022-09-19T21:39:55.816Z,97986.41
2022-09-19T21:42:25.750Z,97993.00
2022-09-19T21:44:54.169Z,97995.50
2022-09-19T21:47:22.620Z,97990.94
2022-09-19T21:49:52.510Z,97990.94
2022-09-19T21:52:20.901Z,97997.16
2022-09-19T21:54:49.322Z,97999.84
2022-09-19T21:57:17.710Z,97990.94
2022-09-19T21:59:46.135Z,97995.31
2022-09-19T22:02:14.625Z,97999.84
2022-09-19T22:04:43.054Z,97999.84
2022-09-19T22:07:12.840Z,97991.78
2022-09-19T22:09:41.295Z,97984.56
2022-09-19T22:12:09.749Z,97996.97
2022-09-19T22:14:38.356Z,98003.38
2022-09-19T22:17:07.204Z,97995.31
2022-09-19T22:19:35.668Z,98000.50
2022-09-19T22:22:04.093Z,97996.97
2022-09-19T22:24:33.790Z,98002.34
2022-09-19T22:27:02.134Z,97995.13
2022-09-19T22:29:30.465Z,97994.28
2022-09-19T22:31:58.963Z,97998.63
2022-09-19T22:34:27.453Z,97989.75
2022-09-19T22:36:55.885Z,97982.50
2022-09-19T22:39:24.400Z,97989.56
2022-09-19T22:41:54.215Z,98000.31
2022-09-19T22:44:22.576Z,97984.19
2022-09-19T22:46:50.993Z,97995.94
2022-09-19T22:49:19.384Z,98002.19
2022-09-19T22:51:47.833Z,98004.88
2022-09-19T22:54:16.383Z,98007.56
2022-09-19T22:56:44.753Z,98002.81
2022-09-19T22:59:14.519Z,98007.34
2022-09-19T23:01:43.266Z,98003.00
2022-09-19T23:04:12.197Z,98012.72
2022-09-19T23:06:41.506Z,98004.66
2022-09-19T23:09:13.463Z,98010.88
2022-09-19T23:11:42.464Z,98008.19
2022-09-19T23:14:15.274Z,98011.72
2022-09-19T23:16:44.763Z,98017.28
2022-09-19T23:19:14.321Z,98018.75
2022-09-19T23:21:46.065Z,98017.09
2022-09-19T23:24:16.508Z,98017.09
2022-09-19T23:26:45.039Z,98023.31
2022-09-19T23:29:14.829Z,98022.47
2022-09-19T23:31:43.631Z,98034.88
2022-09-19T23:34:12.306Z,98029.50
2022-09-19T23:36:40.747Z,98041.91
2022-09-19T23:39:10.591Z,98036.53
2022-09-19T23:41:39.162Z,98041.91
2022-09-19T23:44:07.764Z,98038.41
2022-09-19T23:46:38.320Z,98041.09
2022-09-19T23:49:06.813Z,98045.47
2022-09-19T23:51:36.160Z,98047.28
2022-09-19T23:54:04.840Z,98033.84
2022-09-19T23:56:33.629Z,98052.66
2022-09-19T23:59:03.264Z,98052.66
